createdAt,value
2022-11-19T00:02:07.840Z,16.90
2022-11-19T00:04:41.878Z,21.13
2022-11-19T00:07:28.824Z,17.95
2022-11-19T00:10:09.815Z,24.20
2022-11-19T00:13:03.765Z,21.67
2022-11-19T00:15:44.797Z,20.20
2022-11-19T00:18:38.800Z,26.50
2022-11-19T00:21:25.806Z,16.05
2022-11-19T00:24:09.805Z,18.42
2022-11-19T00:27:03.802Z,18.67
2022-11-19T00:32:24.873Z,17.20
2022-11-19T00:35:12.792Z,17.05
2022-11-19T00:37:53.873Z,16.15
2022-11-19T00:40:34.784Z,15.93
2022-11-19T00:43:34.575Z,14.68
2022-11-19T00:46:15.792Z,17.55
2022-11-19T00:48:57.987Z,15.88
2022-11-19T00:51:38.783Z,17.75
2022-11-19T00:55:02.827Z,17.55
2022-11-19T00:57:55.719Z,14.88
2022-11-19T01:00:43.861Z,13.40
2022-11-19T01:03:17.805Z,12.98
2022-11-19T01:06:05.820Z,10.45
2022-11-19T01:08:40.007Z,7.82
2022-11-19T01:11:32.826Z,15.27
2022-11-19T01:14:44.788Z,9.90
2022-11-19T01:17:31.819Z,14.48
2022-11-19T01:20:05.913Z,9.02
2022-11-19T01:23:30.805Z,5.47
2022-11-19T01:26:22.902Z,5.68
2022-11-19T01:29:09.794Z,4.45
2022-11-19T01:31:43.962Z,4.93
2022-11-19T01:34:30.809Z,5.15
2022-11-19T01:37:04.890Z,4.72
2022-11-19T01:39:51.807Z,4.13
2022-11-19T01:42:56.791Z,5.90
2022-11-19T01:46:00.836Z,4.40
2022-11-19T01:48:57.792Z,4.68
2022-11-19T01:52:02.809Z,4.15
2022-11-19T01:54:37.849Z,8.02
2022-11-19T01:57:25.824Z,5.22
2022-11-19T02:00:36.668Z,3.33
2022-11-19T02:03:42.795Z,4.55
2022-11-19T02:06:24.808Z,5.05
2022-11-19T02:10:07.786Z,12.30
2022-11-19T02:13:15.887Z,8.65
2022-11-19T02:16:19.809Z,5.85
2022-11-19T02:19:22.873Z,5.93
2022-11-19T02:22:22.791Z,7.82
2022-11-19T02:25:08.893Z,9.13
2022-11-19T02:28:14.795Z,11.43
2022-11-19T02:31:28.872Z,8.38
2022-11-19T02:34:28.798Z,8.65
2022-11-19T02:37:47.842Z,10.33
2022-11-19T02:41:36.814Z,10.52
2022-11-19T02:44:35.832Z,7.03
2022-11-19T02:47:35.778Z,6.43
2022-11-19T02:50:24.843Z,9.50
2022-11-19T02:53:05.798Z,7.10
2022-11-19T02:56:12.800Z,7.30
2022-11-19T02:59:37.803Z,9.73
2022-11-19T03:02:44.813Z,12.20
2022-11-19T03:06:20.805Z,9.82
2022-11-19T03:09:30.809Z,9.48
2022-11-19T03:12:26.811Z,7.35
2022-11-19T03:16:04.819Z,5.07
2022-11-19T03:19:10.801Z,4.72
2022-11-19T03:22:10.821Z,6.68
2022-11-19T03:25:08.817Z,5.88
2022-11-19T03:27:57.807Z,5.13
2022-11-19T03:30:31.878Z,4.93
2022-11-19T03:33:39.853Z,5.75
2022-11-19T03:36:37.888Z,6.38
2022-11-19T03:39:26.808Z,4.78
2022-11-19T03:42:07.898Z,5.68
2022-11-19T03:44:58.804Z,7.93
2022-11-19T03:47:42.926Z,4.80
2022-11-19T03:50:30.854Z,9.00
2022-11-19T03:53:12.038Z,8.23
2022-11-19T03:55:54.814Z,9.98
2022-11-19T03:58:35.902Z,8.48
2022-11-19T04:01:16.857Z,6.85
2022-11-19T04:04:22.840Z,11.60
2022-11-19T04:06:56.765Z,5.80
2022-11-19T04:10:39.812Z,5.85
2022-11-19T04:13:37.819Z,4.72
2022-11-19T04:16:18.909Z,6.75
2022-11-19T04:19:05.825Z,7.85
2022-11-19T04:21:39.985Z,8.30
2022-11-19T04:24:27.807Z,5.63
2022-11-19T04:27:01.911Z,9.13
2022-11-19T04:29:48.822Z,9.65
2022-11-19T04:32:22.866Z,10.75
2022-11-19T04:35:10.870Z,9.25
2022-11-19T04:37:51.813Z,13.45
2022-11-19T04:40:45.791Z,10.48
2022-11-19T04:43:32.834Z,12.95
2022-11-19T04:46:06.867Z,13.80
2022-11-19T04:48:53.809Z,12.88
2022-11-19T04:51:34.827Z,11.88
2022-11-19T04:54:28.816Z,12.40
2022-11-19T05:00:03.806Z,11.00
2022-11-19T05:02:51.814Z,17.75
2022-11-19T05:05:25.945Z,13.95
2022-11-19T05:08:31.824Z,11.40
2022-11-19T05:11:05.951Z,13.20
2022-11-19T05:13:52.842Z,15.20
2022-11-19T05:16:54.881Z,16.95
2022-11-19T05:19:42.828Z,17.20
2022-11-19T05:22:16.990Z,19.10
2022-11-19T05:25:03.818Z,22.30
2022-11-19T05:27:37.961Z,14.63
2022-11-19T05:30:25.816Z,18.20
2022-11-19T05:32:59.869Z,16.17
2022-11-19T05:35:46.855Z,19.05
2022-11-19T05:38:27.827Z,16.65
2022-11-19T05:41:21.803Z,18.45
2022-11-19T05:44:09.822Z,15.23
2022-11-19T05:46:43.894Z,18.25
2022-11-19T05:49:30.815Z,21.52
2022-11-19T05:52:04.877Z,15.20
2022-11-19T05:54:51.831Z,16.20
2022-11-19T05:57:32.820Z,19.83
2022-11-19T06:00:27.813Z,20.02
2022-11-19T06:03:15.855Z,16.55
2022-11-19T06:05:49.889Z,16.13
2022-11-19T06:08:36.843Z,19.33
2022-11-19T06:11:37.828Z,18.00
2022-11-19T06:14:30.831Z,15.73
2022-11-19T06:17:05.953Z,19.13
2022-11-19T06:19:52.823Z,16.08
2022-11-19T06:22:40.816Z,18.30
2022-11-19T06:25:14.875Z,16.65
2022-11-19T06:27:55.812Z,20.95
2022-11-19T06:30:50.806Z,22.33
2022-11-19T06:33:37.818Z,16.67
2022-11-19T06:36:11.903Z,19.95
2022-11-19T06:38:59.867Z,16.50
2022-11-19T06:41:33.970Z,19.35
2022-11-19T06:44:21.819Z,20.95
2022-11-19T06:46:55.893Z,19.40
2022-11-19T06:49:42.836Z,19.42
2022-11-19T06:52:16.904Z,23.63
2022-11-19T06:55:03.852Z,20.02
2022-11-19T06:57:37.974Z,22.20
2022-11-19T07:00:25.892Z,20.17
2022-11-19T07:03:06.838Z,15.55
2022-11-19T07:06:01.869Z,14.38
2022-11-19T07:08:49.815Z,19.75
2022-11-19T07:11:26.833Z,17.13
2022-11-19T07:16:47.915Z,17.98
2022-11-19T07:19:35.818Z,18.80
2022-11-19T07:22:16.896Z,14.32
2022-11-19T07:24:56.907Z,19.75
2022-11-19T07:27:37.888Z,20.17
2022-11-19T07:30:18.826Z,12.73
2022-11-19T07:33:07.843Z,21.88
2022-11-19T07:35:41.818Z,17.95
2022-11-19T07:38:35.654Z,17.65
2022-11-19T07:41:29.313Z,15.50
2022-11-19T07:44:16.830Z,19.13
2022-11-19T07:46:56.810Z,20.92
2022-11-19T07:49:37.910Z,21.33
2022-11-19T07:52:17.847Z,16.13
2022-11-19T07:54:58.924Z,21.08
2022-11-19T07:57:39.838Z,16.70
2022-11-19T08:00:20.886Z,16.05
2022-11-19T08:03:00.834Z,13.00
2022-11-19T08:05:42.062Z,16.33
2022-11-19T08:08:21.792Z,13.90
2022-11-19T08:11:09.822Z,20.05
2022-11-19T08:13:43.854Z,19.48
2022-11-19T08:16:49.836Z,17.85
2022-11-19T08:19:36.840Z,16.73
2022-11-19T08:22:17.830Z,16.13
2022-11-19T08:25:11.829Z,21.98
2022-11-19T08:27:58.817Z,22.55
2022-11-19T08:30:32.999Z,15.20
2022-11-19T08:33:20.829Z,15.25
2022-11-19T08:35:55.485Z,16.08
2022-11-19T08:38:41.839Z,18.13
2022-11-19T08:41:40.808Z,24.83
2022-11-19T08:44:27.830Z,26.35
2022-11-19T08:47:08.829Z,23.60
2022-11-19T08:50:02.805Z,23.80
2022-11-19T08:55:23.839Z,16.13
2022-11-19T08:58:04.828Z,24.83
2022-11-19T09:00:45.949Z,21.10
2022-11-19T09:03:33.822Z,22.25
2022-11-19T09:06:14.809Z,20.95
2022-11-19T09:08:55.937Z,31.60
2022-11-19T09:11:41.198Z,23.95
2022-11-19T09:14:22.990Z,17.60
2022-11-19T09:17:02.822Z,19.73
2022-11-19T09:19:43.922Z,15.98
2022-11-19T09:22:24.840Z,18.02
2022-11-19T09:25:05.963Z,20.48
2022-11-19T09:27:46.842Z,18.98
2022-11-19T09:30:34.876Z,21.98
2022-11-19T09:33:15.818Z,15.93
2022-11-19T09:35:56.985Z,24.17
2022-11-19T09:38:43.817Z,18.35
2022-11-19T09:41:24.931Z,23.73
2022-11-19T09:44:37.814Z,21.88
2022-11-19T09:47:24.060Z,53.05
2022-11-19T09:50:17.843Z,58.08
2022-11-19T09:53:03.930Z,28.67
2022-11-19T09:55:49.819Z,43.47
2022-11-19T09:58:37.916Z,48.15
2022-11-19T10:01:20.856Z,27.77
2022-11-19T10:04:02.166Z,45.83
2022-11-19T10:06:46.860Z,76.78
2022-11-19T10:09:45.942Z,93.47
2022-11-19T10:12:26.815Z,71.25
2022-11-19T10:15:37.345Z,87.28
2022-11-19T10:18:28.840Z,76.97
2022-11-19T10:21:11.944Z,87.85
2022-11-19T10:24:00.867Z,53.55
2022-11-19T10:26:45.903Z,38.65
2022-11-19T10:29:28.847Z,59.92
2022-11-19T10:32:28.035Z,22.40
2022-11-19T10:35:14.831Z,18.13
2022-11-19T10:38:08.895Z,23.77
2022-11-19T10:40:56.831Z,24.48
2022-11-19T10:43:37.903Z,27.73
2022-11-19T10:46:21.844Z,22.55
2022-11-19T10:49:12.852Z,21.90
2022-11-19T10:51:46.824Z,29.50
2022-11-19T10:54:39.822Z,22.30
2022-11-19T10:57:35.818Z,27.85
2022-11-19T11:00:24.877Z,29.05
2022-11-19T11:03:13.864Z,37.90
2022-11-19T11:06:12.824Z,27.20
2022-11-19T11:09:01.863Z,21.98
2022-11-19T11:12:04.868Z,27.70
2022-11-19T11:14:52.089Z,31.02
2022-11-19T11:17:42.821Z,47.17
2022-11-19T11:20:20.274Z,36.45
2022-11-19T11:23:17.840Z,82.22
2022-11-19T11:26:03.866Z,56.17
2022-11-19T11:29:17.103Z,34.75
2022-11-19T11:31:52.698Z,76.95
2022-11-19T11:34:43.505Z,44.60
2022-11-19T11:37:17.792Z,123.63
2022-11-19T11:40:07.838Z,56.38
2022-11-19T11:45:35.850Z,25.05
2022-11-19T11:48:18.655Z,28.92
2022-11-19T11:51:05.853Z,30.73
2022-11-19T11:53:39.886Z,36.92
2022-11-19T11:56:34.826Z,28.88
2022-11-19T11:59:28.850Z,27.50
2022-11-19T12:02:11.942Z,22.67
2022-11-19T12:04:51.845Z,30.95
2022-11-19T12:07:51.897Z,32.70
2022-11-19T12:10:51.854Z,38.13
2022-11-19T12:13:48.839Z,33.35
2022-11-19T12:16:28.109Z,35.10
2022-11-19T12:19:33.843Z,30.15
2022-11-19T12:22:24.842Z,35.75
2022-11-19T12:25:13.932Z,25.83
2022-11-19T12:28:05.847Z,28.57
2022-11-19T12:30:52.915Z,29.63
2022-11-19T12:33:41.861Z,42.47
2022-11-19T12:36:51.852Z,29.55
2022-11-19T12:39:38.557Z,36.13
2022-11-19T12:42:33.866Z,33.00
2022-11-19T12:45:28.864Z,34.85
2022-11-19T12:48:21.834Z,36.50
2022-11-19T12:51:07.911Z,31.05
2022-11-19T12:54:01.829Z,36.10
2022-11-19T12:56:47.104Z,34.97
2022-11-19T12:59:34.852Z,38.92
2022-11-19T13:02:25.980Z,38.17
2022-11-19T13:05:18.855Z,34.72
2022-11-19T13:08:03.844Z,39.42
2022-11-19T13:10:50.985Z,27.02
2022-11-19T13:13:33.851Z,34.72
2022-11-19T13:16:29.848Z,42.65
2022-11-19T13:19:25.850Z,57.45
2022-11-19T13:22:21.846Z,36.05
2022-11-19T13:25:04.933Z,30.13
2022-11-19T13:27:45.822Z,30.20
2022-11-19T13:30:33.591Z,34.45
2022-11-19T13:33:25.835Z,35.78
2022-11-19T13:36:17.840Z,29.17
2022-11-19T13:39:05.960Z,31.05
2022-11-19T13:42:14.881Z,43.47
2022-11-19T13:44:48.940Z,23.42
2022-11-19T13:47:43.848Z,30.33
2022-11-19T13:50:28.933Z,32.85
2022-11-19T13:53:13.836Z,33.85
2022-11-19T13:55:54.939Z,31.75
2022-11-19T13:58:38.872Z,31.75
2022-11-19T14:01:37.938Z,25.73
2022-11-19T14:04:52.851Z,27.02
2022-11-19T14:07:37.704Z,30.92
2022-11-19T14:10:32.864Z,27.48
2022-11-19T14:13:13.941Z,23.77
2022-11-19T14:16:12.855Z,27.25
2022-11-19T14:19:14.493Z,34.00
2022-11-19T14:22:15.848Z,42.28
2022-11-19T14:25:15.644Z,36.30
2022-11-19T14:28:01.857Z,37.80
2022-11-19T14:31:09.009Z,35.75
2022-11-19T14:33:55.875Z,29.58
2022-11-19T14:36:32.943Z,30.17
2022-11-19T14:39:24.862Z,35.10
2022-11-19T14:42:31.900Z,35.42
2022-11-19T14:45:25.838Z,38.83
2022-11-19T14:50:46.908Z,35.58
2022-11-19T14:53:33.856Z,29.65
2022-11-19T14:56:08.933Z,27.13
2022-11-19T14:59:01.871Z,27.15
2022-11-19T15:01:35.938Z,32.03
2022-11-19T15:04:23.843Z,28.98
2022-11-19T15:06:58.985Z,30.13
2022-11-19T15:10:13.861Z,23.58
2022-11-19T15:13:02.856Z,41.63
2022-11-19T15:15:48.842Z,52.47
2022-11-19T15:18:54.877Z,44.90
2022-11-19T15:21:41.863Z,40.35
2022-11-19T15:24:41.854Z,34.20
2022-11-19T15:27:42.857Z,33.50
2022-11-19T15:30:27.909Z,26.30
2022-11-19T15:33:14.869Z,35.38
2022-11-19T15:36:14.874Z,45.92
2022-11-19T15:39:11.856Z,38.55
2022-11-19T15:42:07.871Z,43.05
2022-11-19T15:44:55.944Z,36.72
2022-11-19T15:48:15.830Z,35.97
2022-11-19T15:50:57.845Z,34.50
2022-11-19T15:53:44.851Z,33.55
2022-11-19T15:56:19.937Z,23.30
2022-11-19T15:59:08.879Z,25.50
2022-11-19T16:01:42.994Z,23.08
2022-11-19T16:04:30.871Z,17.70
2022-11-19T16:07:11.950Z,26.58
2022-11-19T16:10:06.847Z,20.50
2022-11-19T16:13:19.890Z,28.77
2022-11-19T16:16:13.551Z,31.98
2022-11-19T16:18:59.859Z,30.70
2022-11-19T16:21:38.982Z,37.08
2022-11-19T16:24:45.875Z,35.15
2022-11-19T16:27:26.082Z,22.70
2022-11-19T16:30:13.850Z,17.65
2022-11-19T16:32:47.938Z,31.20
2022-11-19T16:35:37.871Z,27.48
2022-11-19T16:41:18.840Z,32.88
2022-11-19T16:43:52.949Z,25.63
2022-11-19T16:46:41.889Z,28.65
2022-11-19T16:49:46.844Z,22.33
2022-11-19T16:52:33.367Z,30.63
2022-11-19T16:55:32.854Z,22.45
2022-11-19T16:58:17.784Z,23.03
2022-11-19T17:01:09.910Z,26.98
2022-11-19T17:03:43.931Z,26.95
2022-11-19T17:06:35.868Z,33.85
2022-11-19T17:09:29.224Z,39.47
2022-11-19T17:12:25.888Z,25.85
2022-11-19T17:15:00.597Z,22.55
2022-11-19T17:17:54.863Z,22.40
2022-11-19T17:20:29.502Z,17.10
2022-11-19T17:23:22.869Z,26.88
2022-11-19T17:26:01.705Z,23.17
2022-11-19T17:28:55.854Z,24.48
2022-11-19T17:31:29.806Z,17.77
2022-11-19T17:34:21.070Z,25.00
2022-11-19T17:36:54.870Z,29.58
2022-11-19T17:39:42.848Z,28.80
2022-11-19T17:42:41.860Z,22.75
2022-11-19T17:45:22.957Z,14.95
2022-11-19T17:48:02.834Z,18.50
2022-11-19T17:50:43.993Z,17.92
2022-11-19T17:53:24.839Z,18.52
2022-11-19T17:56:07.920Z,24.50
2022-11-19T17:58:47.864Z,17.75
2022-11-19T18:01:28.994Z,22.67
2022-11-19T18:04:08.932Z,30.45
2022-11-19T18:06:49.972Z,24.17
2022-11-19T18:09:34.647Z,27.70
2022-11-19T18:12:20.940Z,21.58
2022-11-19T18:15:02.244Z,22.92
2022-11-19T18:17:42.946Z,24.85
2022-11-19T18:20:23.871Z,19.08
2022-11-19T18:23:04.945Z,23.48
2022-11-19T18:25:47.836Z,22.55
2022-11-19T18:28:28.951Z,18.83
2022-11-19T18:31:08.850Z,20.23
2022-11-19T18:33:50.083Z,20.70
2022-11-19T18:36:31.887Z,16.23
2022-11-19T18:39:12.922Z,15.68
2022-11-19T18:41:53.875Z,23.40
2022-11-19T18:44:35.078Z,28.13
2022-11-19T18:47:16.869Z,16.35
2022-11-19T18:49:57.929Z,20.50
2022-11-19T18:52:37.895Z,17.58
2022-11-19T18:55:18.927Z,18.15
2022-11-19T18:57:59.852Z,19.08
2022-11-19T19:00:40.930Z,18.02
2022-11-19T19:03:21.854Z,25.40
2022-11-19T19:06:09.851Z,23.40
2022-11-19T19:08:45.212Z,16.50
2022-11-19T19:11:50.844Z,20.33
2022-11-19T19:14:24.820Z,17.83
2022-11-19T19:17:12.854Z,15.50
2022-11-19T19:19:46.967Z,17.92
2022-11-19T19:22:34.844Z,23.73
2022-11-19T19:25:09.202Z,22.38
2022-11-19T19:27:56.871Z,16.83
2022-11-19T19:30:30.886Z,15.05
2022-11-19T19:33:22.241Z,12.80
2022-11-19T19:35:55.796Z,13.38
2022-11-19T19:38:43.841Z,17.65
2022-11-19T19:41:27.851Z,16.60
2022-11-19T19:44:11.088Z,14.23
2022-11-19T19:46:53.882Z,18.83
2022-11-19T19:49:38.878Z,16.92
2022-11-19T19:52:18.887Z,20.05
2022-11-19T19:55:06.870Z,14.40
2022-11-19T19:57:40.794Z,18.77
2022-11-19T20:00:29.861Z,29.98
2022-11-19T20:03:03.804Z,20.13
2022-11-19T20:05:51.868Z,20.38
2022-11-19T20:08:32.857Z,19.92
2022-11-19T20:11:29.082Z,19.95
2022-11-19T20:14:02.787Z,20.60
2022-11-19T20:16:54.860Z,26.85
2022-11-19T20:19:34.872Z,20.13
2022-11-19T20:22:15.914Z,22.40
2022-11-19T20:24:55.883Z,19.40
2022-11-19T20:27:43.866Z,24.77
2022-11-19T20:30:24.843Z,25.77
2022-11-19T20:33:08.262Z,32.72
2022-11-19T20:35:56.857Z,51.22
2022-11-19T20:38:45.895Z,35.05
2022-11-19T20:41:45.904Z,28.48
2022-11-19T20:44:26.948Z,35.83
2022-11-19T20:47:10.876Z,29.27
2022-11-19T20:49:51.925Z,30.20
2022-11-19T20:52:32.113Z,23.85
2022-11-19T20:55:12.921Z,32.45
2022-11-19T20:57:52.870Z,36.20
2022-11-19T21:00:41.867Z,53.22
2022-11-19T21:03:21.894Z,16.23
2022-11-19T21:06:10.862Z,25.33
2022-11-19T21:08:44.788Z,31.08
2022-11-19T21:11:32.885Z,29.27
2022-11-19T21:14:13.846Z,24.73
2022-11-19T21:17:01.910Z,24.48
2022-11-19T21:19:35.945Z,28.45
2022-11-19T21:22:23.882Z,32.80
2022-11-19T21:24:57.870Z,30.13
2022-11-19T21:27:45.897Z,25.58
2022-11-19T21:30:19.992Z,24.45
2022-11-19T21:33:07.941Z,22.63
2022-11-19T21:35:47.957Z,27.73
2022-11-19T21:38:36.878Z,26.50
2022-11-19T21:41:10.800Z,28.00
2022-11-19T21:43:58.884Z,26.30
2022-11-19T21:46:45.875Z,22.48
2022-11-19T21:49:20.344Z,23.25
2022-11-19T21:52:06.855Z,26.63
2022-11-19T21:54:40.977Z,34.70
2022-11-19T21:57:29.879Z,23.08
2022-11-19T22:00:10.855Z,23.77
2022-11-19T22:03:05.857Z,21.95
2022-11-19T22:05:52.873Z,28.30
2022-11-19T22:08:26.941Z,34.22
2022-11-19T22:11:33.851Z,27.10
2022-11-19T22:14:16.877Z,24.77
2022-11-19T22:17:11.858Z,26.63
2022-11-19T22:19:58.872Z,30.35
2022-11-19T22:22:39.897Z,24.75
2022-11-19T22:25:33.921Z,27.75
2022-11-19T22:28:21.834Z,26.38
2022-11-19T22:30:59.593Z,23.20
2022-11-19T22:33:49.870Z,31.27
2022-11-19T22:36:30.905Z,21.45
2022-11-19T22:39:24.860Z,27.55
2022-11-19T22:44:46.103Z,21.95
2022-11-19T22:47:32.872Z,31.10
2022-11-19T22:50:06.933Z,24.83
2022-11-19T22:52:53.875Z,24.15
2022-11-19T22:55:34.937Z,27.98
2022-11-19T22:58:21.893Z,28.10
2022-11-19T23:01:02.955Z,28.63
2022-11-19T23:03:56.865Z,27.10
2022-11-19T23:06:43.850Z,27.80
2022-11-19T23:09:18.055Z,28.70
2022-11-19T23:12:23.869Z,32.22
2022-11-19T23:15:04.898Z,32.42
2022-11-19T23:17:58.867Z,29.10
2022-11-19T23:23:19.950Z,31.38
2022-11-19T23:26:03.920Z,26.00
2022-11-19T23:28:45.010Z,27.48
2022-11-19T23:31:26.886Z,34.55
2022-11-19T23:34:01.838Z,35.97
2022-11-19T23:36:52.882Z,33.05
2022-11-19T23:39:26.812Z,32.15
2022-11-19T23:42:07.873Z,28.92
2022-11-19T23:44:42.070Z,29.13
2022-11-19T23:47:21.924Z,25.58
2022-11-19T23:50:09.866Z,36.47
2022-11-19T23:52:43.819Z,35.15
2022-11-19T23:55:31.904Z,30.27
2022-11-19T23:58:05.924Z,26.80
